Time;durP1;ratioP1;P1;durP2;ratioP2;P2;SDS_P1;SDS_P2;PMS_P1;PMS_P2;Temp;Humidity;BMP_temperature;BMP_pressure;BME280_temperature;BME280_humidity;BME280_pressure;Samples;Min_cycle;Max_cycle;Signal;HPM_P1;HPM_P2
2024/03/03 00:00:04;;;;;;;;;;;;;;;13.15;65.96;98336.27;68401;1279;1014811;-70
2024/03/03 00:03:07;;;;;;;;;;;;;;;13.07;66.23;98338.81;68379;1279;1016401;-70
2024/03/03 00:06:09;;;;;;;;;;;;;;;13.12;66.09;98335.63;68407;1279;1015559;-69
2024/03/03 00:09:12;;;;;;;;;;;;;;;13.09;66.19;98336.59;68420;1279;1015689;-70
2024/03/03 00:12:15;;;;;;;;;;;;;;;13.07;66.55;98336.05;68423;1279;1015612;-70
2024/03/03 00:15:17;;;;;;;;;;;;;;;13.05;66.43;98337.07;68406;1279;1016142;-70
2024/03/03 00:18:20;;;;;;;;;;;;;;;13.14;66.04;98334.79;68398;1279;1014165;-70
2024/03/03 00:21:22;;;;;;;;;;;;;;;13.20;65.69;98330.30;68401;1279;1015863;-70
2024/03/03 00:24:25;;;;;;;;;;;;;;;13.10;65.80;98330.92;68402;1279;1015533;-64
2024/03/03 00:27:29;;;;;;;;;;;;;;;13.06;65.79;98330.35;68415;1279;1015520;-70
2024/03/03 00:30:32;;;;;;;;;;;;;;;13.03;65.96;98328.45;68405;1279;1015380;-70
2024/03/03 00:33:35;;;;;;;;;;;;;;;13.03;65.94;98324.96;68407;1279;1016038;-69
2024/03/03 00:36:37;;;;;;;;;;;;;;;13.01;66.19;98318.95;68416;1279;1015790;-70
2024/03/03 00:39:40;;;;;;;;;;;;;;;13.00;66.17;98312.00;68403;1279;1015771;-70
2024/03/03 00:42:42;;;;;;;;;;;;;;;12.94;66.04;98310.52;68404;1279;1016133;-70
2024/03/03 00:45:45;;;;;;;;;;;;;;;12.79;66.55;98310.32;68408;1279;1015575;-71
2024/03/03 00:48:47;;;;;;;;;;;;;;;12.74;66.95;98304.00;68418;1279;1015432;-70
2024/03/03 00:51:50;;;;;;;;;;;;;;;12.75;66.80;98302.15;68424;1279;1015444;-70
2024/03/03 00:54:52;;;;;;;;;;;;;;;12.71;67.01;98298.65;68430;1279;1014293;-70
2024/03/03 00:57:58;;;;;;;;;;;;;;;12.73;66.92;98295.71;68358;1279;1015928;-70
2024/03/03 01:01:01;;;;;;;;;;;;;;;12.52;67.37;98296.09;68420;1279;1015671;-70
2024/03/03 01:04:03;;;;;;;;;;;;;;;12.30;68.19;98295.09;68413;1279;1015999;-70
2024/03/03 01:07:06;;;;;;;;;;;;;;;12.26;68.63;98293.04;68395;1279;1016209;-70
2024/03/03 01:10:08;;;;;;;;;;;;;;;12.34;68.68;98296.75;68415;1279;1015255;-69
2024/03/03 01:13:11;;;;;;;;;;;;;;;12.40;68.43;98301.20;68426;1279;1015719;-70
2024/03/03 01:16:15;;;;;;;;;;;;;;;12.30;68.42;98298.48;68402;1279;1016081;-70
2024/03/03 01:19:17;;;;;;;;;;;;;;;12.31;68.22;98293.48;68399;1279;1015602;-70
2024/03/03 01:22:21;;;;;;;;;;;;;;;12.32;68.25;98296.23;68414;1279;1015620;-70
2024/03/03 01:25:23;;;;;;;;;;;;;;;12.25;68.52;98294.11;68412;1279;1015940;-70
2024/03/03 01:28:26;;;;;;;;;;;;;;;12.26;68.43;98296.98;68404;1279;1015609;-69
2024/03/03 01:31:28;;;;;;;;;;;;;;;12.32;68.20;98298.16;68415;1279;1016219;-70
2024/03/03 01:34:31;;;;;;;;;;;;;;;12.24;68.24;98302.45;68412;1279;1016077;-70
2024/03/03 01:37:33;;;;;;;;;;;;;;;12.18;68.50;98296.97;68419;1279;1015169;-70
2024/03/03 01:40:36;;;;;;;;;;;;;;;12.15;68.10;98295.23;68428;1279;1015471;-70
2024/03/03 01:43:39;;;;;;;;;;;;;;;12.06;68.53;98297.30;68428;1279;1015249;-70
2024/03/03 01:46:42;;;;;;;;;;;;;;;11.94;68.77;98299.95;68422;1279;1016283;-70
2024/03/03 01:49:44;;;;;;;;;;;;;;;11.79;69.38;98298.94;68421;1279;1015632;-65
2024/03/03 01:52:47;;;;;;;;;;;;;;;11.74;69.87;98303.84;68406;1279;1015374;-69
2024/03/03 01:55:50;;;;;;;;;;;;;;;11.81;69.70;98306.62;68416;1279;1015168;-70
2024/03/03 01:58:52;;;;;;;;;;;;;;;11.94;69.64;98296.91;68425;1279;1016141;-70
2024/03/03 02:01:55;;;;;;;;;;;;;;;12.03;69.15;98297.05;68424;1279;1015216;-70
2024/03/03 02:04:57;;;;;;;;;;;;;;;11.97;69.20;98300.65;68416;1279;1015569;-70
2024/03/03 02:08:01;;;;;;;;;;;;;;;11.95;69.37;98300.39;68415;1279;1015519;-63
2024/03/03 02:11:03;;;;;;;;;;;;;;;11.89;69.61;98293.80;68425;1279;1015771;-69
2024/03/03 02:14:06;;;;;;;;;;;;;;;11.77;70.12;98291.36;68422;1279;1015285;-70
2024/03/03 02:17:09;;;;;;;;;;;;;;;11.78;70.18;98290.41;68409;1279;1014793;-70
2024/03/03 02:20:11;;;;;;;;;;;;;;;11.71;70.49;98289.73;68418;1279;1016094;-70
2024/03/03 02:23:14;;;;;;;;;;;;;;;11.58;70.94;98285.40;68408;1279;1015632;-70
2024/03/03 02:26:16;;;;;;;;;;;;;;;11.51;71.57;98285.77;68434;1279;1015255;-70
2024/03/03 02:29:21;;;;;;;;;;;;;;;11.44;72.26;98282.02;68414;1279;1015920;-70
2024/03/03 02:32:23;;;;;;;;;;;;;;;11.45;71.79;98284.60;68416;1279;1015573;-70
2024/03/03 02:35:26;;;;;;;;;;;;;;;11.49;71.59;98280.81;68424;1279;1014612;-70
2024/03/03 02:38:28;;;;;;;;;;;;;;;11.44;71.82;98278.03;68432;1279;1015730;-70
2024/03/03 02:41:31;;;;;;;;;;;;;;;11.48;71.55;98281.41;68428;1279;1014605;-70
2024/03/03 02:44:33;;;;;;;;;;;;;;;11.53;71.17;98281.05;68417;1279;1015730;-70
2024/03/03 02:47:36;;;;;;;;;;;;;;;11.61;70.76;98280.45;68408;1279;1015677;-70
2024/03/03 02:50:38;;;;;;;;;;;;;;;11.61;70.83;98278.68;68430;1279;1015714;-70
2024/03/03 02:53:41;;;;;;;;;;;;;;;11.49;71.22;98277.98;68432;1279;1015553;-70
2024/03/03 02:56:44;;;;;;;;;;;;;;;11.52;71.56;98276.55;68433;1279;1014873;-70
2024/03/03 02:59:46;;;;;;;;;;;;;;;11.51;71.53;98279.11;68420;1279;1015943;-70
2024/03/03 03:02:49;;;;;;;;;;;;;;;11.53;71.53;98279.14;68419;1279;1015674;-70
2024/03/03 03:05:51;;;;;;;;;;;;;;;11.52;71.47;98277.27;68430;1279;1015866;-70
2024/03/03 03:08:54;;;;;;;;;;;;;;;11.56;71.17;98277.66;68407;1279;1015908;-68
2024/03/03 03:11:57;;;;;;;;;;;;;;;11.51;71.44;98275.41;68406;1279;1015367;-70
2024/03/03 03:14:59;;;;;;;;;;;;;;;11.50;71.71;98272.53;68428;1279;1015750;-71
2024/03/03 03:18:02;;;;;;;;;;;;;;;11.49;71.67;98278.21;68425;1279;1015759;-69
2024/03/03 03:21:04;;;;;;;;;;;;;;;11.54;71.37;98278.20;68405;1279;1016096;-70
2024/03/03 03:24:07;;;;;;;;;;;;;;;11.54;71.51;98274.15;68445;1279;1016337;-70
2024/03/03 03:27:09;;;;;;;;;;;;;;;11.52;71.36;98275.55;68429;1279;1015561;-69
2024/03/03 03:30:12;;;;;;;;;;;;;;;11.45;71.80;98274.31;68440;1279;1015703;-70
2024/03/03 03:33:15;;;;;;;;;;;;;;;11.45;72.02;98277.11;68420;1279;1016013;-70
2024/03/03 03:36:19;;;;;;;;;;;;;;;11.50;71.81;98276.01;68422;1279;1015563;-70
2024/03/03 03:39:21;;;;;;;;;;;;;;;11.51;71.82;98278.55;68431;1279;1015727;-70
2024/03/03 03:42:24;;;;;;;;;;;;;;;11.69;71.05;98282.34;68420;1279;1015736;-70
2024/03/03 03:45:27;;;;;;;;;;;;;;;11.67;71.31;98283.89;68409;1279;1015491;-70
2024/03/03 03:48:29;;;;;;;;;;;;;;;11.78;71.15;98278.90;68421;1279;1016156;-70
2024/03/03 03:51:32;;;;;;;;;;;;;;;11.79;70.81;98278.08;68437;1279;1014785;-70
2024/03/03 03:54:34;;;;;;;;;;;;;;;11.73;71.01;98284.52;68436;1279;1016016;-70
2024/03/03 03:57:37;;;;;;;;;;;;;;;11.72;70.92;98281.95;68420;1279;1015742;-68
2024/03/03 04:00:40;;;;;;;;;;;;;;;11.71;71.01;98284.64;68417;1279;1016386;-70
2024/03/03 04:03:42;;;;;;;;;;;;;;;11.71;70.81;98281.98;68408;1279;1015633;-70
2024/03/03 04:06:45;;;;;;;;;;;;;;;11.70;70.96;98285.98;68446;1279;1014866;-70
2024/03/03 04:09:47;;;;;;;;;;;;;;;11.69;71.25;98286.70;68433;1279;1015404;-70
2024/03/03 04:12:50;;;;;;;;;;;;;;;11.73;70.98;98288.55;68432;1279;1015849;-70
2024/03/03 04:15:53;;;;;;;;;;;;;;;11.77;70.61;98286.95;68426;1279;1016199;-69
2024/03/03 04:18:56;;;;;;;;;;;;;;;11.72;70.71;98286.87;68442;1280;1015409;-70
2024/03/03 04:21:59;;;;;;;;;;;;;;;11.61;70.79;98289.90;68431;1279;1015287;-60
2024/03/03 04:25:01;;;;;;;;;;;;;;;11.55;71.22;98286.01;68426;1279;1015567;-63
2024/03/03 04:28:04;;;;;;;;;;;;;;;11.50;71.38;98288.45;68430;1280;1016102;-62
2024/03/03 04:31:07;;;;;;;;;;;;;;;11.59;71.04;98287.77;68442;1280;1016139;-70
2024/03/03 04:34:09;;;;;;;;;;;;;;;11.55;71.06;98287.17;68425;1279;1015265;-70
2024/03/03 04:37:12;;;;;;;;;;;;;;;11.55;70.97;98289.69;68438;1279;1015210;-70
2024/03/03 04:40:14;;;;;;;;;;;;;;;11.47;71.01;98286.93;68420;1279;1014563;-70
2024/03/03 04:43:17;;;;;;;;;;;;;;;11.55;70.88;98287.05;68437;1279;1015794;-60
2024/03/03 04:46:20;;;;;;;;;;;;;;;11.48;70.74;98283.70;68433;1279;1015760;-70
2024/03/03 04:49:22;;;;;;;;;;;;;;;11.45;71.17;98287.39;68416;1279;1015786;-70
2024/03/03 04:52:25;;;;;;;;;;;;;;;11.49;70.82;98291.53;68444;1279;1015385;-70
2024/03/03 04:55:27;;;;;;;;;;;;;;;11.44;70.67;98283.77;68435;1279;1015976;-70
2024/03/03 04:58:30;;;;;;;;;;;;;;;11.40;70.63;98282.73;68422;1279;1016085;-70
2024/03/03 05:01:33;;;;;;;;;;;;;;;11.25;71.42;98285.02;68433;1279;1015596;-70
2024/03/03 05:04:35;;;;;;;;;;;;;;;11.29;71.32;98283.29;68444;1279;1016370;-67
2024/03/03 05:07:38;;;;;;;;;;;;;;;11.36;70.83;98278.93;68446;1279;1015644;-70
2024/03/03 05:10:40;;;;;;;;;;;;;;;11.36;70.57;98275.97;68427;1279;1015938;-70
2024/03/03 05:13:43;;;;;;;;;;;;;;;11.31;70.92;98276.14;68436;1279;1016025;-70
2024/03/03 05:16:45;;;;;;;;;;;;;;;11.29;70.92;98277.35;68423;1279;1015584;-69
2024/03/03 05:19:48;;;;;;;;;;;;;;;11.28;70.75;98281.06;68433;1279;1016013;-70
2024/03/03 05:22:51;;;;;;;;;;;;;;;11.29;70.77;98280.69;68445;1279;1014325;-70
2024/03/03 05:25:54;;;;;;;;;;;;;;;11.30;70.71;98276.31;68447;1279;1016444;-70
2024/03/03 05:28:57;;;;;;;;;;;;;;;11.36;70.27;98284.92;68443;1279;1016040;-70
2024/03/03 05:32:00;;;;;;;;;;;;;;;11.33;70.30;98281.09;68415;1279;1016600;-69
2024/03/03 05:35:02;;;;;;;;;;;;;;;11.34;70.25;98281.69;68448;1279;1015992;-69
2024/03/03 05:38:05;;;;;;;;;;;;;;;11.29;70.39;98286.33;68446;1279;1015773;-70
2024/03/03 05:41:07;;;;;;;;;;;;;;;11.35;70.35;98288.00;68417;1279;1015746;-70
2024/03/03 05:44:10;;;;;;;;;;;;;;;11.43;69.59;98291.42;68445;1279;1015720;-70
2024/03/03 05:47:12;;;;;;;;;;;;;;;11.40;69.50;98290.05;68418;1279;1016217;-70
2024/03/03 05:50:15;;;;;;;;;;;;;;;11.35;69.31;98291.09;68441;1279;1015420;-68
2024/03/03 05:53:18;;;;;;;;;;;;;;;11.39;69.31;98291.17;68443;1279;1015600;-70
2024/03/03 05:56:20;;;;;;;;;;;;;;;11.47;68.99;98293.36;68431;1279;1016507;-70
2024/03/03 05:59:23;;;;;;;;;;;;;;;11.31;69.67;98292.13;68432;1279;1015737;-70
2024/03/03 06:02:25;;;;;;;;;;;;;;;11.36;69.66;98295.41;68411;1279;1015222;-69
2024/03/03 06:05:28;;;;;;;;;;;;;;;11.43;69.79;98290.51;68423;1279;1016159;-70
2024/03/03 06:08:30;;;;;;;;;;;;;;;11.52;69.59;98287.45;68434;1279;1016610;-70
2024/03/03 06:11:33;;;;;;;;;;;;;;;11.60;69.36;98287.23;68429;1279;1016177;-70
2024/03/03 06:14:36;;;;;;;;;;;;;;;11.72;69.01;98286.64;68418;1279;1015495;-67
2024/03/03 06:17:40;;;;;;;;;;;;;;;11.72;68.58;98285.60;68437;1279;1015494;-69
2024/03/03 06:20:43;;;;;;;;;;;;;;;11.75;68.96;98289.58;68436;1279;1016122;-70
2024/03/03 06:23:46;;;;;;;;;;;;;;;11.88;68.37;98292.52;68415;1280;1014881;-70
2024/03/03 06:26:48;;;;;;;;;;;;;;;11.95;68.15;98291.98;68436;1279;1015381;-70
2024/03/03 06:29:51;;;;;;;;;;;;;;;12.00;68.25;98289.48;68432;1279;1015698;-70
2024/03/03 06:32:53;;;;;;;;;;;;;;;12.13;67.89;98290.98;68413;1279;1015431;-70
2024/03/03 06:35:56;;;;;;;;;;;;;;;12.17;68.35;98294.73;68422;1279;1016858;-70
2024/03/03 06:38:59;;;;;;;;;;;;;;;12.26;68.37;98293.54;68444;1279;1016143;-69
2024/03/03 06:42:02;;;;;;;;;;;;;;;12.48;67.67;98291.02;68442;1279;1016457;-66
2024/03/03 06:45:05;;;;;;;;;;;;;;;12.68;67.69;98289.78;68437;1279;1015444;-70
2024/03/03 06:48:07;;;;;;;;;;;;;;;12.92;66.88;98295.27;68427;1279;1016622;-70
2024/03/03 06:51:11;;;;;;;;;;;;;;;13.11;66.61;98293.55;68438;1279;1014795;-69
2024/03/03 06:54:13;;;;;;;;;;;;;;;13.28;66.22;98297.16;68434;1279;1015945;-70
2024/03/03 06:57:17;;;;;;;;;;;;;;;13.36;65.25;98298.45;68448;1279;1014732;-70
2024/03/03 07:00:19;;;;;;;;;;;;;;;13.36;64.75;98292.83;68445;1279;1015825;-71
2024/03/03 07:03:49;;;;;;;;;;;;;;;13.51;65.10;98293.40;68436;1279;1015532;-70
2024/03/03 07:06:52;;;;;;;;;;;;;;;13.69;64.61;98290.73;68452;1279;1015414;-70
2024/03/03 07:09:55;;;;;;;;;;;;;;;13.89;64.05;98285.35;68444;1279;1016104;-70
2024/03/03 07:12:58;;;;;;;;;;;;;;;14.04;63.10;98285.58;68447;1279;1016215;-70
2024/03/03 07:16:00;;;;;;;;;;;;;;;14.17;62.56;98284.28;68443;1280;1014424;-70
2024/03/03 07:19:03;;;;;;;;;;;;;;;14.15;61.89;98283.95;68437;1279;1015967;-70
2024/03/03 07:22:06;;;;;;;;;;;;;;;14.10;62.27;98283.78;68421;1279;1015919;-70
2024/03/03 07:25:08;;;;;;;;;;;;;;;14.18;62.36;98282.11;68437;1279;1015960;-70
2024/03/03 07:28:11;;;;;;;;;;;;;;;14.42;62.02;98281.63;68436;1279;1014806;-70
2024/03/03 07:31:14;;;;;;;;;;;;;;;14.59;61.73;98278.42;68429;1279;1015546;-70
2024/03/03 07:34:16;;;;;;;;;;;;;;;14.65;61.62;98279.54;68434;1279;1016001;-70
2024/03/03 07:37:19;;;;;;;;;;;;;;;14.83;61.21;98281.00;68456;1279;1015359;-69
2024/03/03 07:40:23;;;;;;;;;;;;;;;14.90;60.84;98285.81;68445;1279;1016290;-69
2024/03/03 07:43:26;;;;;;;;;;;;;;;15.04;60.82;98284.20;68412;1279;1016613;-70
2024/03/03 07:46:29;;;;;;;;;;;;;;;15.13;60.17;98282.78;68424;1279;1016010;-67
2024/03/03 07:49:32;;;;;;;;;;;;;;;15.16;60.43;98276.34;68438;1279;1015907;-70
2024/03/03 07:52:34;;;;;;;;;;;;;;;15.34;60.27;98277.94;68430;1279;1015613;-70
2024/03/03 07:55:37;;;;;;;;;;;;;;;15.47;59.12;98274.64;68445;1279;1016109;-69
2024/03/03 07:58:41;;;;;;;;;;;;;;;15.60;59.13;98275.77;68449;1279;1016156;-70
2024/03/03 08:01:43;;;;;;;;;;;;;;;15.70;59.06;98282.38;68442;1279;1015659;-70
2024/03/03 08:04:46;;;;;;;;;;;;;;;15.93;59.15;98281.09;65843;1280;6386862;-70
2024/03/03 08:07:48;;;;;;;;;;;;;;;16.12;58.00;98279.64;68437;1280;1015258;-70
2024/03/03 08:10:51;;;;;;;;;;;;;;;16.25;58.01;98282.70;68444;1279;1015913;-70
2024/03/03 08:13:53;;;;;;;;;;;;;;;16.38;57.98;98282.21;68420;1279;1015949;-70
2024/03/03 08:16:56;;;;;;;;;;;;;;;16.52;56.40;98279.28;68433;1280;1015415;-70
2024/03/03 08:19:58;;;;;;;;;;;;;;;16.60;56.88;98272.89;68443;1279;1015995;-70
2024/03/03 08:23:01;;;;;;;;;;;;;;;16.67;56.83;98277.39;68423;1280;1015027;-70
2024/03/03 08:26:04;;;;;;;;;;;;;;;16.68;55.69;98279.56;68412;1279;1015486;-69
2024/03/03 08:29:08;;;;;;;;;;;;;;;16.72;57.13;98283.62;68424;1279;1015290;-70
2024/03/03 08:32:10;;;;;;;;;;;;;;;17.01;57.03;98279.85;68424;1279;1014643;-65
2024/03/03 08:35:13;;;;;;;;;;;;;;;17.27;56.78;98278.08;68429;1280;1015685;-70
2024/03/03 08:38:16;;;;;;;;;;;;;;;17.46;55.67;98279.40;68432;1280;1015323;-70
2024/03/03 08:41:21;;;;;;;;;;;;;;;17.63;53.76;98274.13;68407;1280;1016955;-69
2024/03/03 08:44:24;;;;;;;;;;;;;;;17.63;55.09;98278.64;68416;1280;1016069;-69
2024/03/03 08:47:27;;;;;;;;;;;;;;;17.81;54.89;98277.55;68423;1280;1016232;-70
2024/03/03 08:50:29;;;;;;;;;;;;;;;18.14;54.18;98279.95;68422;1280;1016114;-70
2024/03/03 08:53:33;;;;;;;;;;;;;;;18.22;54.14;98271.40;68446;1280;1015747;-69
2024/03/03 08:56:36;;;;;;;;;;;;;;;18.32;53.88;98272.80;68411;1280;1015682;-70
2024/03/03 08:59:38;;;;;;;;;;;;;;;18.51;53.72;98273.14;68407;1280;1015516;-64
2024/03/03 09:02:41;;;;;;;;;;;;;;;18.56;53.31;98267.49;68427;1280;1015583;-70
2024/03/03 09:05:43;;;;;;;;;;;;;;;18.70;53.74;98271.30;68423;1280;1015948;-69
2024/03/03 09:08:46;;;;;;;;;;;;;;;18.84;53.40;98273.17;68433;1279;1015411;-70
2024/03/03 09:11:48;;;;;;;;;;;;;;;19.03;52.42;98268.02;68437;1280;1015569;-70
2024/03/03 09:14:51;;;;;;;;;;;;;;;19.00;51.80;98267.48;68431;1279;1016039;-69
2024/03/03 09:17:53;;;;;;;;;;;;;;;18.97;52.14;98266.73;68415;1280;1015427;-61
2024/03/03 09:20:56;;;;;;;;;;;;;;;19.09;52.35;98269.23;68428;1280;1015980;-69
2024/03/03 09:24:00;;;;;;;;;;;;;;;19.24;51.85;98273.13;68428;1280;1016233;-61
2024/03/03 09:27:02;;;;;;;;;;;;;;;19.33;51.75;98270.79;68421;1279;1015343;-69
2024/03/03 09:30:05;;;;;;;;;;;;;;;19.44;51.14;98270.11;68409;1279;1016045;-63
2024/03/03 09:33:08;;;;;;;;;;;;;;;19.48;50.67;98270.76;68423;1279;1016086;-69
2024/03/03 09:36:11;;;;;;;;;;;;;;;19.76;50.19;98270.78;68425;1279;1016172;-68
2024/03/03 09:39:13;;;;;;;;;;;;;;;19.92;49.38;98270.52;68405;1279;1015244;-69
2024/03/03 09:42:16;;;;;;;;;;;;;;;20.08;50.02;98263.11;68419;1279;1016212;-69
2024/03/03 09:45:18;;;;;;;;;;;;;;;20.31;49.99;98261.51;68414;1279;1015759;-68
2024/03/03 09:48:21;;;;;;;;;;;;;;;20.51;49.69;98268.91;68396;1279;1016030;-70
2024/03/03 09:51:24;;;;;;;;;;;;;;;20.67;49.28;98265.66;68424;1279;1015649;-70
2024/03/03 09:54:27;;;;;;;;;;;;;;;20.74;48.51;98257.75;68418;1279;1016441;-69
2024/03/03 09:57:30;;;;;;;;;;;;;;;20.93;48.34;98265.63;68419;1279;1016004;-68
2024/03/03 10:00:32;;;;;;;;;;;;;;;21.05;48.07;98261.01;68417;1279;1014984;-68
2024/03/03 10:03:35;;;;;;;;;;;;;;;20.98;47.25;98262.36;68442;1279;1015420;-67
2024/03/03 10:06:37;;;;;;;;;;;;;;;21.02;47.00;98261.02;68425;1279;1015602;-70
2024/03/03 10:09:40;;;;;;;;;;;;;;;20.97;46.16;98258.09;68405;1279;1016253;-69
2024/03/03 10:12:43;;;;;;;;;;;;;;;21.02;46.89;98259.05;68411;1279;1015251;-63
2024/03/03 10:15:47;;;;;;;;;;;;;;;21.14;46.79;98257.04;68421;1279;1015769;-68
2024/03/03 10:18:50;;;;;;;;;;;;;;;21.03;46.73;98262.30;68419;1279;1015600;-69
2024/03/03 10:21:52;;;;;;;;;;;;;;;20.88;46.82;98259.65;68420;1279;1016768;-69
2024/03/03 10:24:55;;;;;;;;;;;;;;;20.77;46.60;98256.38;68415;1279;1015810;-70
2024/03/03 10:27:58;;;;;;;;;;;;;;;20.56;46.78;98253.91;68400;1279;1015395;-68
2024/03/03 10:31:00;;;;;;;;;;;;;;;20.45;47.11;98253.85;68411;1279;1015776;-69
2024/03/03 10:34:03;;;;;;;;;;;;;;;20.55;47.08;98249.88;68406;1279;1014541;-68
2024/03/03 10:37:06;;;;;;;;;;;;;;;20.49;47.31;98248.06;68413;1279;1015604;-63
2024/03/03 10:40:08;;;;;;;;;;;;;;;20.73;47.45;98241.60;68418;1279;1015617;-70
2024/03/03 10:43:11;;;;;;;;;;;;;;;21.04;47.12;98239.36;68402;1279;1016418;-70
2024/03/03 10:46:13;;;;;;;;;;;;;;;21.27;46.53;98236.23;68419;1279;1015337;-69
2024/03/03 10:49:16;;;;;;;;;;;;;;;21.58;46.73;98235.86;68422;1279;1015461;-70
2024/03/03 10:52:19;;;;;;;;;;;;;;;21.93;45.79;98227.14;68401;1279;1014386;-70
2024/03/03 10:55:22;;;;;;;;;;;;;;;21.98;45.40;98224.98;68414;1279;1015720;-70
2024/03/03 10:58:24;;;;;;;;;;;;;;;22.01;45.47;98218.95;68412;1279;1015969;-68
2024/03/03 11:01:27;;;;;;;;;;;;;;;22.02;43.94;98213.64;68398;1279;1015010;-69
2024/03/03 11:04:32;;;;;;;;;;;;;;;22.07;45.35;98207.81;68396;1279;1015423;-70
2024/03/03 11:07:36;;;;;;;;;;;;;;;22.15;43.46;98205.09;68411;1279;1015868;-69
2024/03/03 11:10:39;;;;;;;;;;;;;;;22.27;44.30;98201.55;68417;1279;1015668;-69
2024/03/03 11:13:41;;;;;;;;;;;;;;;22.46;43.89;98194.20;68398;1279;1015708;-69
2024/03/03 11:16:44;;;;;;;;;;;;;;;22.58;43.14;98194.77;68404;1279;1016106;-68
2024/03/03 11:19:47;;;;;;;;;;;;;;;22.37;41.59;98192.59;68428;1279;1014261;-70
2024/03/03 11:22:49;;;;;;;;;;;;;;;21.99;41.50;98188.20;68427;1279;1016166;-70
2024/03/03 11:25:54;;;;;;;;;;;;;;;21.79;41.47;98175.21;68393;1279;1016035;-70
2024/03/03 11:28:57;;;;;;;;;;;;;;;21.59;42.30;98175.27;68408;1279;1016128;-70
2024/03/03 11:31:59;;;;;;;;;;;;;;;21.65;42.46;98174.05;68405;1279;1016011;-70
2024/03/03 11:35:02;;;;;;;;;;;;;;;21.68;43.11;98169.41;68407;1279;1016552;-69
2024/03/03 11:38:04;;;;;;;;;;;;;;;21.73;42.15;98166.70;68403;1279;1015164;-70
2024/03/03 11:41:09;;;;;;;;;;;;;;;21.51;42.47;98166.58;68409;1279;1015483;-70
2024/03/03 11:44:12;;;;;;;;;;;;;;;21.69;42.63;98161.79;68399;1279;1016072;-69
2024/03/03 11:47:15;;;;;;;;;;;;;;;21.74;41.66;98151.44;68400;1279;1015676;-69
2024/03/03 11:50:17;;;;;;;;;;;;;;;21.60;41.07;98151.96;68408;1279;1015973;-70
2024/03/03 11:53:20;;;;;;;;;;;;;;;21.87;42.33;98148.31;68411;1279;1015618;-70
2024/03/03 11:56:22;;;;;;;;;;;;;;;22.11;41.79;98143.58;68400;1279;1015493;-70
2024/03/03 11:59:25;;;;;;;;;;;;;;;22.26;41.66;98143.11;68413;1279;1015018;-69
2024/03/03 12:02:27;;;;;;;;;;;;;;;22.31;40.64;98139.36;68407;1279;1015634;-69
2024/03/03 12:05:30;;;;;;;;;;;;;;;22.43;41.06;98140.39;68414;1279;1015454;-70
2024/03/03 12:08:33;;;;;;;;;;;;;;;22.61;41.07;98140.41;68401;1279;1015935;-70
2024/03/03 12:11:35;;;;;;;;;;;;;;;22.69;41.39;98132.98;68386;1279;1016272;-70
2024/03/03 12:14:38;;;;;;;;;;;;;;;22.81;41.31;98130.08;68420;1279;1015221;-70
2024/03/03 12:17:40;;;;;;;;;;;;;;;23.08;40.51;98127.10;68412;1279;1016179;-70
2024/03/03 12:20:44;;;;;;;;;;;;;;;23.01;40.20;98129.17;68408;1279;1015809;-70
2024/03/03 12:23:46;;;;;;;;;;;;;;;23.01;39.71;98127.64;68406;1279;1015383;-70
2024/03/03 12:26:49;;;;;;;;;;;;;;;23.00;40.56;98121.80;68406;1279;1015466;-70
2024/03/03 12:29:52;;;;;;;;;;;;;;;23.16;40.02;98122.83;68410;1279;1015396;-68
2024/03/03 12:32:55;;;;;;;;;;;;;;;23.39;39.86;98118.80;68402;1279;1015367;-70
2024/03/03 12:35:58;;;;;;;;;;;;;;;23.44;39.50;98116.38;68397;1279;1015937;-70
2024/03/03 12:39:00;;;;;;;;;;;;;;;23.45;39.31;98114.89;68409;1279;1015154;-69
2024/03/03 12:42:04;;;;;;;;;;;;;;;23.58;39.53;98110.93;68386;1279;1015766;-69
2024/03/03 12:45:07;;;;;;;;;;;;;;;23.75;39.12;98104.16;68408;1280;1015473;-70
2024/03/03 12:48:09;;;;;;;;;;;;;;;23.75;39.13;98102.96;68402;1279;1015414;-70
2024/03/03 12:51:13;;;;;;;;;;;;;;;23.71;39.00;98101.79;68412;1279;1015936;-70
2024/03/03 12:54:15;;;;;;;;;;;;;;;23.65;38.98;98098.09;68385;1279;1014588;-70
2024/03/03 12:57:22;;;;;;;;;;;;;;;23.59;38.91;98101.83;68401;1279;1015358;-69
2024/03/03 13:00:24;;;;;;;;;;;;;;;23.77;38.90;98097.34;68425;1279;1016187;-70
2024/03/03 13:03:27;;;;;;;;;;;;;;;23.74;38.72;98096.34;68412;1279;1015407;-70
2024/03/03 13:06:30;;;;;;;;;;;;;;;23.59;38.85;98096.15;68391;1279;1016309;-70
2024/03/03 13:09:33;;;;;;;;;;;;;;;23.58;39.42;98087.66;68408;1279;1016273;-69
2024/03/03 13:12:35;;;;;;;;;;;;;;;23.82;39.50;98085.38;68399;1279;1015481;-69
2024/03/03 13:15:43;;;;;;;;;;;;;;;23.95;38.78;98079.77;68362;1279;1014587;-70
2024/03/03 13:18:45;;;;;;;;;;;;;;;23.78;38.47;98083.11;68395;1279;1015114;-69
2024/03/03 13:21:48;;;;;;;;;;;;;;;23.78;38.77;98080.79;68401;1279;1015538;-69
2024/03/03 13:24:50;;;;;;;;;;;;;;;23.72;38.44;98078.13;68388;1279;1015196;-69
2024/03/03 13:27:54;;;;;;;;;;;;;;;23.59;39.25;98079.43;68410;1279;1015707;-69
2024/03/03 13:30:58;;;;;;;;;;;;;;;23.67;38.35;98081.96;68409;1279;1016082;-69
2024/03/03 13:34:00;;;;;;;;;;;;;;;23.49;38.76;98077.01;68366;1279;1016116;-69
2024/03/03 13:37:03;;;;;;;;;;;;;;;23.58;39.10;98077.58;68415;1279;1015662;-69
2024/03/03 13:40:07;;;;;;;;;;;;;;;23.70;38.57;98077.11;68389;1279;1016038;-69
2024/03/03 13:43:09;;;;;;;;;;;;;;;23.77;38.09;98075.35;68392;1279;1016036;-69
2024/03/03 13:46:12;;;;;;;;;;;;;;;23.63;37.91;98073.37;68393;1279;1015432;-70
2024/03/03 13:49:15;;;;;;;;;;;;;;;23.64;38.83;98075.55;68404;1279;1015773;-70
2024/03/03 13:52:17;;;;;;;;;;;;;;;23.58;38.03;98072.38;68394;1279;1016823;-69
2024/03/03 13:55:20;;;;;;;;;;;;;;;23.55;38.14;98077.02;68415;1279;1016941;-69
2024/03/03 13:58:22;;;;;;;;;;;;;;;23.53;38.24;98072.42;68408;1279;1015579;-68
2024/03/03 14:01:25;;;;;;;;;;;;;;;23.49;38.71;98068.53;68407;1279;1015643;-69
2024/03/03 14:04:28;;;;;;;;;;;;;;;23.40;38.04;98070.05;68399;1279;1015741;-69
2024/03/03 14:07:30;;;;;;;;;;;;;;;23.28;38.21;98067.96;68402;1279;1015872;-69
2024/03/03 14:10:33;;;;;;;;;;;;;;;23.43;38.20;98068.04;68398;1279;1016157;-69
2024/03/03 14:13:35;;;;;;;;;;;;;;;23.32;37.97;98062.68;68397;1279;1015483;-69
2024/03/03 14:16:38;;;;;;;;;;;;;;;23.42;37.87;98067.45;68387;1279;1015927;-70
2024/03/03 14:19:41;;;;;;;;;;;;;;;23.40;37.70;98064.66;68405;1279;1015546;-69
2024/03/03 14:22:49;;;;;;;;;;;;;;;23.31;37.62;98061.11;68406;1279;1015408;-69
2024/03/03 14:25:51;;;;;;;;;;;;;;;23.16;37.28;98061.48;68416;1279;1016521;-69
2024/03/03 14:28:54;;;;;;;;;;;;;;;23.08;37.59;98067.05;68404;1279;1015869;-70
2024/03/03 14:31:56;;;;;;;;;;;;;;;23.13;37.51;98060.55;68398;1279;1015482;-70
2024/03/03 14:34:59;;;;;;;;;;;;;;;23.07;37.47;98060.94;68399;1279;1016087;-70
2024/03/03 14:38:01;;;;;;;;;;;;;;;23.06;37.34;98062.19;68393;1279;1015945;-70
2024/03/03 14:41:04;;;;;;;;;;;;;;;23.10;36.88;98056.60;68400;1279;1015624;-69
2024/03/03 14:44:07;;;;;;;;;;;;;;;23.01;37.32;98053.09;68401;1279;1015945;-70
2024/03/03 14:47:09;;;;;;;;;;;;;;;22.84;36.97;98057.30;68408;1279;1016625;-70
2024/03/03 14:50:12;;;;;;;;;;;;;;;22.83;37.41;98055.49;68404;1279;1016125;-69
2024/03/03 14:53:15;;;;;;;;;;;;;;;22.75;37.07;98057.05;68385;1279;1016205;-69
2024/03/03 14:56:18;;;;;;;;;;;;;;;22.58;37.28;98047.92;68398;1279;1016252;-70
2024/03/03 14:59:20;;;;;;;;;;;;;;;22.49;37.40;98048.81;68402;1279;1015367;-69
2024/03/03 15:02:23;;;;;;;;;;;;;;;22.55;37.34;98045.74;68386;1279;1016043;-70
2024/03/03 15:05:26;;;;;;;;;;;;;;;22.50;37.37;98043.65;68389;1279;1015440;-70
2024/03/03 15:08:28;;;;;;;;;;;;;;;22.42;37.48;98047.17;68402;1279;1015305;-69
2024/03/03 15:11:31;;;;;;;;;;;;;;;22.29;37.49;98043.42;68401;1279;1016305;-69
2024/03/03 15:14:33;;;;;;;;;;;;;;;22.05;37.91;98042.92;68397;1279;1015877;-70
2024/03/03 15:17:36;;;;;;;;;;;;;;;21.95;38.17;98043.95;68402;1279;1015465;-70
2024/03/03 15:20:38;;;;;;;;;;;;;;;21.89;38.20;98042.77;68387;1279;1016164;-70
2024/03/03 15:23:41;;;;;;;;;;;;;;;21.67;38.17;98043.86;68399;1279;1015446;-70
2024/03/03 15:26:43;;;;;;;;;;;;;;;21.52;38.23;98044.62;68389;1279;1015206;-69